Time;durP1;ratioP1;P1;durP2;ratioP2;P2;SDS_P1;SDS_P2;PMS_P1;PMS_P2;Temp;Humidity;BMP_temperature;BMP_pressure;BME280_temperature;BME280_humidity;BME280_pressure;Samples;Min_cycle;Max_cycle;Signal;HPM_P1;HPM_P2
2022/03/18 00:00:54;;;;;;;25.05;18.10;;;12.60;47.70;;;;;;5120957;28;20015;-66
2022/03/18 00:03:20;;;;;;;26.13;18.33;;;12.50;47.70;;;;;;5120863;28;20027;-66
2022/03/18 00:05:46;;;;;;;22.88;18.30;;;12.50;47.60;;;;;;5120830;28;20586;-66
2022/03/18 00:08:12;;;;;;;23.95;18.63;;;12.60;47.70;;;;;;5120560;27;20028;-65
2022/03/18 00:10:38;;;;;;;24.55;17.83;;;12.60;47.70;;;;;;5120734;28;20023;-65
2022/03/18 00:13:04;;;;;;;26.83;18.88;;;12.60;47.70;;;;;;5119377;28;20032;-67
2022/03/18 00:15:30;;;;;;;27.10;18.48;;;12.60;47.70;;;;;;5120629;28;20015;-66
2022/03/18 00:17:56;;;;;;;25.05;19.00;;;12.60;47.60;;;;;;5120624;28;20069;-65
2022/03/18 00:20:23;;;;;;;25.85;19.02;;;12.60;47.60;;;;;;5120530;28;20024;-65
2022/03/18 00:22:49;;;;;;;24.35;18.45;;;12.50;47.60;;;;;;5120572;27;20032;-67
2022/03/18 00:25:17;;;;;;;26.38;19.13;;;12.50;47.70;;;;;;5120437;28;20023;-68
2022/03/18 00:27:44;;;;;;;26.33;18.73;;;12.60;47.70;;;;;;5120458;28;20033;-67
2022/03/18 00:30:12;;;;;;;27.02;19.60;;;12.60;47.70;;;;;;5120466;28;20070;-66
2022/03/18 00:32:39;;;;;;;27.38;19.95;;;12.60;47.70;;;;;;5120378;28;20088;-65
2022/03/18 00:35:07;;;;;;;27.15;19.20;;;12.60;47.70;;;;;;5120287;28;20080;-66
2022/03/18 00:37:34;;;;;;;25.83;18.13;;;12.60;47.60;;;;;;5120330;28;20032;-67
2022/03/18 00:40:00;;;;;;;27.27;19.40;;;12.60;47.60;;;;;;5120302;28;20024;-67
2022/03/18 00:42:26;;;;;;;26.73;19.27;;;12.60;47.60;;;;;;5120194;28;20027;-68
2022/03/18 00:44:51;;;;;;;27.27;19.38;;;12.60;47.70;;;;;;5120008;28;20051;-67
2022/03/18 00:52:45;;;;;;;27.42;19.77;;;12.60;47.70;;;;;;5120104;28;20023;-66
2022/03/18 00:55:11;;;;;;;24.95;18.95;;;12.60;47.70;;;;;;5120053;28;20024;-66
2022/03/18 00:57:37;;;;;;;22.88;17.95;;;12.60;47.70;;;;;;5120035;28;20621;-68
2022/03/18 01:00:07;;;;;;;25.27;19.20;;;12.60;47.60;;;;;;5120008;28;20242;-66
2022/03/18 01:02:32;;;;;;;27.30;20.20;;;12.60;47.60;;;;;;5118582;28;20258;-66
2022/03/18 01:04:58;;;;;;;27.45;19.48;;;12.60;47.60;;;;;;5119960;28;20046;-66
2022/03/18 01:07:24;;;;;;;28.70;19.95;;;12.60;47.70;;;;;;5119814;28;20027;-66
2022/03/18 01:09:50;;;;;;;27.20;19.55;;;12.60;47.70;;;;;;5119942;28;20061;-68
2022/03/18 01:12:17;;;;;;;22.90;18.55;;;12.60;47.70;;;;;;5119889;28;20031;-67
2022/03/18 01:14:42;;;;;;;26.85;20.35;;;12.60;47.70;;;;;;5119769;28;20042;-65
2022/03/18 01:17:08;;;;;;;27.30;19.90;;;12.60;47.70;;;;;;5119818;28;20095;-66
2022/03/18 01:19:34;;;;;;;27.30;19.50;;;12.60;47.70;;;;;;5119801;28;20088;-65
2022/03/18 01:22:00;;;;;;;27.30;20.30;;;12.60;47.60;;;;;;5123174;28;20212;-67
2022/03/18 01:24:25;;;;;;;24.55;18.75;;;12.60;47.60;;;;;;5124022;28;20647;-68
2022/03/18 01:26:51;;;;;;;25.42;18.85;;;12.60;47.60;;;;;;5123949;28;20031;-66
2022/03/18 01:29:17;;;;;;;29.08;20.73;;;12.60;47.70;;;;;;5123918;28;20308;-67
2022/03/18 01:31:43;;;;;;;28.27;20.05;;;12.60;48.30;;;;;;5123862;28;20024;-66
2022/03/18 01:34:09;;;;;;;27.70;19.83;;;12.60;47.60;;;;;;5123877;28;20022;-66
2022/03/18 01:36:34;;;;;;;25.63;19.77;;;12.60;47.60;;;;;;5123847;27;20073;-67
2022/03/18 01:39:01;;;;;;;26.45;19.92;;;12.60;47.60;;;;;;5123819;28;20280;-67
2022/03/18 01:41:26;;;;;;;28.02;19.77;;;12.60;47.60;;;;;;5123754;28;20038;-66
2022/03/18 01:43:52;;;;;;;24.67;19.67;;;12.60;47.60;;;;;;5123493;28;20023;-66
2022/03/18 01:46:18;;;;;;;30.08;20.58;;;12.60;47.60;;;;;;5123658;28;20035;-66
2022/03/18 01:48:45;;;;;;;26.27;20.67;;;12.60;47.60;;;;;;5123619;28;20051;-67
2022/03/18 01:51:15;;;;;;;27.40;18.90;;;12.60;47.60;;;;;;5123565;28;20062;-67
2022/03/18 01:53:43;;;;;;;26.92;19.83;;;12.70;47.60;;;;;;5122311;28;20224;-66
2022/03/18 01:56:09;;;;;;;26.65;21.02;;;12.60;47.60;;;;;;5123503;28;20095;-67
2022/03/18 01:58:37;;;;;;;27.73;19.73;;;12.60;47.60;;;;;;5122130;28;20376;-67
2022/03/18 02:01:03;;;;;;;27.83;19.70;;;12.60;47.70;;;;;;5123398;28;20227;-67
2022/03/18 02:03:29;;;;;;;27.45;19.73;;;12.60;48.20;;;;;;5123308;28;20051;-66
2022/03/18 02:05:55;;;;;;;26.23;19.98;;;12.70;47.70;;;;;;5123212;28;20373;-68
2022/03/18 02:08:21;;;;;;;25.92;19.60;;;12.70;47.60;;;;;;5123273;28;20024;-66
2022/03/18 02:10:47;;;;;;;26.52;19.27;;;12.60;47.60;;;;;;5123251;28;20215;-66
2022/03/18 02:13:13;;;;;;;28.13;20.20;;;12.60;47.60;;;;;;5123174;28;20027;-67
2022/03/18 02:15:39;;;;;;;28.02;20.23;;;12.60;47.60;;;;;;5123152;28;20033;-66
2022/03/18 02:18:05;;;;;;;27.95;20.05;;;12.70;47.60;;;;;;5123085;28;20039;-67
2022/03/18 02:20:35;;;;;;;30.05;20.65;;;12.60;47.60;;;;;;5123095;28;20066;-66
2022/03/18 02:23:01;;;;;;;;;;;12.60;47.60;;;;;;5123477;28;20055;-66
2022/03/18 02:25:26;;;;;;;27.98;20.75;;;12.70;47.60;;;;;;5122819;28;20227;-67
2022/03/18 02:27:56;;;;;;;29.85;21.42;;;12.70;47.60;;;;;;5122872;28;20028;-65
2022/03/18 02:30:23;;;;;;;26.60;20.00;;;12.70;47.60;;;;;;5122798;28;20239;-65
2022/03/18 02:32:49;;;;;;;29.45;21.35;;;12.70;47.60;;;;;;5122721;28;20231;-66
2022/03/18 02:35:14;;;;;;;26.85;19.85;;;12.70;47.70;;;;;;5122691;28;20022;-66
2022/03/18 02:37:40;;;;;;;28.08;21.10;;;12.70;47.60;;;;;;5122671;28;20024;-66
2022/03/18 02:40:06;;;;;;;29.55;20.23;;;12.70;47.60;;;;;;5122681;28;20324;-66
2022/03/18 02:42:32;;;;;;;27.10;21.92;;;12.70;47.70;;;;;;5122645;28;20074;-65
2022/03/18 02:44:58;;;;;;;28.58;19.73;;;12.70;47.70;;;;;;5122296;28;20047;-67
2022/03/18 02:47:24;;;;;;;28.27;19.85;;;12.70;47.70;;;;;;5122355;28;20031;-66
2022/03/18 02:49:51;;;;;;;28.33;20.02;;;12.70;47.70;;;;;;5122594;28;20051;-66
2022/03/18 02:52:16;;;;;;;27.08;20.38;;;12.70;47.60;;;;;;5122433;28;20023;-66
2022/03/18 02:54:42;;;;;;;29.48;21.63;;;12.70;47.60;;;;;;5122376;28;20268;-66
2022/03/18 02:57:09;;;;;;;26.27;20.27;;;12.70;47.60;;;;;;5122385;28;20038;-66
2022/03/18 02:59:35;;;;;;;29.70;21.55;;;12.70;47.60;;;;;;5122319;28;20024;-67
2022/03/18 03:02:00;;;;;;;30.27;21.30;;;12.70;47.50;;;;;;5121924;28;20034;-66
2022/03/18 03:04:26;;;;;;;27.23;19.65;;;12.70;47.60;;;;;;5122227;28;20327;-66
2022/03/18 03:09:36;;;;;;;28.40;21.00;;;12.70;47.60;;;;;;5122174;28;20061;-64
2022/03/18 03:12:02;;;;;;;28.35;20.85;;;12.70;47.60;;;;;;5122113;28;20015;-68
2022/03/18 03:14:27;;;;;;;28.80;21.40;;;12.70;47.60;;;;;;5122133;28;20266;-66
2022/03/18 03:16:53;;;;;;;26.70;20.80;;;12.70;47.50;;;;;;5121991;28;20091;-67
2022/03/18 03:19:20;;;;;;;27.25;20.08;;;12.70;47.50;;;;;;5122057;28;20032;-67
2022/03/18 03:21:46;;;;;;;28.27;21.13;;;12.70;47.50;;;;;;5121915;28;20027;-67
2022/03/18 03:24:11;;;;;;;24.00;19.55;;;12.70;47.60;;;;;;5121926;28;20044;-66
2022/03/18 03:26:38;;;;;;;26.15;20.25;;;12.80;47.50;;;;;;5121792;28;20038;-67
2022/03/18 03:29:03;;;;;;;26.02;19.95;;;12.70;47.50;;;;;;5121826;28;20296;-66
2022/03/18 03:31:29;;;;;;;30.33;22.83;;;12.70;47.50;;;;;;5121813;28;20208;-66
2022/03/18 03:33:55;;;;;;;28.17;20.70;;;12.70;47.40;;;;;;5121971;28;20153;-66
2022/03/18 03:36:20;;;;;;;26.42;20.38;;;12.70;47.50;;;;;;5121658;28;20023;-65
2022/03/18 03:38:46;;;;;;;30.20;21.38;;;12.70;47.50;;;;;;5121651;28;20024;-67
2022/03/18 03:41:12;;;;;;;27.65;20.42;;;12.70;47.50;;;;;;5121478;28;20023;-66
2022/03/18 03:43:38;;;;;;;28.15;21.30;;;12.80;47.50;;;;;;5121003;28;20316;-67
2022/03/18 03:46:04;;;;;;;28.13;21.25;;;12.80;47.50;;;;;;5121245;28;20043;-67
2022/03/18 03:48:30;;;;;;;30.58;21.50;;;12.70;47.40;;;;;;5121456;28;20038;-67
2022/03/18 03:50:55;;;;;;;27.65;21.23;;;12.80;47.50;;;;;;5120146;28;20108;-66
2022/03/18 03:53:21;;;;;;;28.08;20.88;;;12.80;47.50;;;;;;5121385;28;20027;-66
2022/03/18 03:55:47;;;;;;;28.02;20.45;;;12.80;48.10;;;;;;5121260;28;20027;-67
2022/03/18 03:58:12;;;;;;;25.77;20.95;;;12.80;47.50;;;;;;5121254;28;20226;-66
2022/03/18 04:00:38;;;;;;;26.25;21.40;;;12.80;47.50;;;;;;5121194;28;20031;-66
2022/03/18 04:03:04;;;;;;;29.70;21.60;;;12.80;47.50;;;;;;5121227;28;20242;-66
2022/03/18 04:05:34;;;;;;;27.20;21.30;;;12.80;47.50;;;;;;5121045;28;20115;-67
2022/03/18 04:08:01;;;;;;;28.50;21.63;;;12.80;47.40;;;;;;5121136;28;20321;-67
2022/03/18 04:10:27;;;;;;;29.08;21.67;;;12.80;47.50;;;;;;5121060;28;20487;-66
2022/03/18 04:12:54;;;;;;;30.38;21.35;;;12.80;47.40;;;;;;5121004;28;20043;-67
2022/03/18 04:15:21;;;;;;;26.95;21.38;;;12.80;47.40;;;;;;5120938;28;20019;-67
2022/03/18 04:17:48;;;;;;;33.08;23.85;;;12.80;47.30;;;;;;5120944;28;20056;-67
2022/03/18 04:20:21;;;;;;;28.40;21.80;;;12.80;47.40;;;;;;5120829;28;20065;-66
2022/03/18 04:22:47;;;;;;;31.83;21.25;;;12.80;47.40;;;;;;5120804;28;20004;-66
2022/03/18 04:25:13;;;;;;;29.15;21.90;;;12.80;47.40;;;;;;5120697;28;20078;-67
2022/03/18 04:27:39;;;;;;;25.20;19.67;;;12.80;47.40;;;;;;5120671;28;20115;-66
2022/03/18 04:30:07;;;;;;;29.38;21.67;;;12.80;47.30;;;;;;5120686;28;20034;-66
2022/03/18 04:32:33;;;;;;;29.13;21.67;;;12.80;47.30;;;;;;5120636;28;20368;-67
2022/03/18 04:34:59;;;;;;;29.80;21.83;;;12.80;48.00;;;;;;5120578;28;20031;-66
2022/03/18 04:37:25;;;;;;;29.42;21.95;;;12.80;47.30;;;;;;5120502;28;20323;-67
2022/03/18 04:39:52;;;;;;;29.80;21.55;;;12.80;47.40;;;;;;5120550;28;20035;-67
2022/03/18 04:42:18;;;;;;;30.77;21.67;;;12.90;47.40;;;;;;5120370;28;20030;-66
2022/03/18 04:44:44;;;;;;;30.92;22.38;;;12.80;47.40;;;;;;5120333;28;20047;-66
2022/03/18 04:47:11;;;;;;;27.17;21.08;;;12.80;47.40;;;;;;5120304;28;20088;-66
2022/03/18 04:49:37;;;;;;;30.35;22.10;;;12.80;47.30;;;;;;5120408;28;20029;-67
2022/03/18 04:52:04;;;;;;;28.92;22.80;;;12.80;47.30;;;;;;5120304;28;20027;-66
2022/03/18 04:54:29;;;;;;;28.90;21.92;;;12.80;47.40;;;;;;5120031;28;20034;-67
2022/03/18 04:59:40;;;;;;;27.38;20.75;;;12.90;47.40;;;;;;5120248;28;20022;-67
2022/03/18 05:02:07;;;;;;;29.27;21.42;;;12.90;47.30;;;;;;5120164;28;20019;-67
2022/03/18 05:04:33;;;;;;;27.00;21.45;;;12.80;47.90;;;;;;5120099;28;20028;-67
2022/03/18 05:06:58;;;;;;;26.67;20.77;;;12.90;47.30;;;;;;5120010;28;20140;-66
2022/03/18 05:09:25;;;;;;;29.63;21.77;;;12.90;47.30;;;;;;5120097;28;20069;-66
2022/03/18 05:11:51;;;;;;;28.63;21.85;;;12.90;47.40;;;;;;5120084;28;20316;-66
2022/03/18 05:14:17;;;;;;;31.73;23.92;;;12.90;47.30;;;;;;5120033;28;20508;-66
2022/03/18 05:16:43;;;;;;;29.88;21.50;;;12.80;47.30;;;;;;5118757;28;20023;-66
2022/03/18 05:19:12;;;;;;;28.38;22.35;;;12.90;47.40;;;;;;5119988;28;20094;-66
2022/03/18 05:21:38;;;;;;;30.10;22.15;;;12.90;47.40;;;;;;5120019;28;20020;-67
2022/03/18 05:24:05;;;;;;;28.45;21.33;;;12.90;47.30;;;;;;5119972;28;20043;-68
2022/03/18 05:26:31;;;;;;;28.75;22.27;;;12.90;47.30;;;;;;5119884;28;20046;-67
2022/03/18 05:28:57;;;;;;;31.27;22.58;;;12.80;47.30;;;;;;5119976;28;20227;-67
2022/03/18 05:31:25;;;;;;;29.02;22.13;;;12.90;47.40;;;;;;5119922;28;20026;-67
2022/03/18 05:33:51;;;;;;;31.13;22.88;;;12.90;47.30;;;;;;5119927;28;20051;-66
2022/03/18 05:36:17;;;;;;;27.25;20.15;;;12.90;47.20;;;;;;5119807;28;20046;-66
2022/03/18 05:38:43;;;;;;;27.92;22.30;;;12.90;47.30;;;;;;5119846;28;20043;-66
2022/03/18 05:41:09;;;;;;;27.27;21.50;;;12.90;47.20;;;;;;5119784;28;20026;-67
2022/03/18 05:43:36;;;;;;;30.45;22.13;;;12.90;47.20;;;;;;5119806;28;20060;-66
2022/03/18 05:46:02;;;;;;;27.17;21.65;;;12.90;47.20;;;;;;5118338;28;20039;-65
2022/03/18 05:48:28;;;;;;;27.88;21.70;;;12.90;47.30;;;;;;5119723;28;20343;-66
2022/03/18 05:50:54;;;;;;;30.10;22.17;;;13.00;47.20;;;;;;5119781;28;20355;-67
2022/03/18 05:53:19;;;;;;;29.45;22.63;;;12.90;47.20;;;;;;5119697;28;20011;-66
2022/03/18 05:58:30;;;;;;;30.17;22.15;;;13.00;47.20;;;;;;5119695;28;20068;-67
2022/03/18 06:00:56;;;;;;;29.60;22.80;;;13.00;47.20;;;;;;5119672;28;20023;-66
2022/03/18 06:03:22;;;;;;;30.65;22.98;;;13.00;47.20;;;;;;5119621;28;20035;-66
2022/03/18 06:05:47;;;;;;;29.88;22.02;;;13.00;47.20;;;;;;5119594;28;20531;-67
2022/03/18 06:13:41;;;;;;;30.15;22.67;;;13.00;47.10;;;;;;5123376;28;20358;-67
2022/03/18 06:16:07;;;;;;;29.42;22.33;;;13.00;47.10;;;;;;5123281;28;20023;-65
2022/03/18 06:18:33;;;;;;;28.42;20.30;;;13.00;47.10;;;;;;5123250;28;20038;-65
2022/03/18 06:20:59;;;;;;;30.83;22.92;;;13.00;47.00;;;;;;5123180;28;20027;-67
2022/03/18 06:23:25;;;;;;;29.23;22.13;;;13.00;47.00;;;;;;5123073;28;20057;-67
2022/03/18 06:25:51;;;;;;;27.05;21.73;;;13.10;47.00;;;;;;5123046;28;20087;-67
2022/03/18 06:28:17;;;;;;;28.90;21.98;;;13.00;47.00;;;;;;5123120;28;20204;-66
2022/03/18 06:30:44;;;;;;;27.75;21.45;;;13.10;46.90;;;;;;5121657;28;20031;-66
2022/03/18 06:33:09;;;;;;;30.63;22.70;;;13.10;46.90;;;;;;5122994;28;20057;-67
2022/03/18 06:35:35;;;;;;;29.63;22.77;;;13.10;46.90;;;;;;5122950;28;20082;-67
2022/03/18 06:38:01;;;;;;;30.75;22.55;;;13.10;46.90;;;;;;5123188;28;20027;-66
2022/03/18 06:40:27;;;;;;;27.75;20.35;;;13.10;46.90;;;;;;5122800;28;20043;-67
2022/03/18 06:42:52;;;;;;;29.25;22.13;;;13.10;46.80;;;;;;5122757;28;20044;-66
2022/03/18 06:45:18;;;;;;;30.70;22.23;;;13.10;46.80;;;;;;5122444;28;20061;-68
2022/03/18 06:47:44;;;;;;;29.10;22.50;;;13.10;46.70;;;;;;5122703;28;20047;-67
2022/03/18 06:50:09;;;;;;;29.90;22.67;;;13.10;46.80;;;;;;5122497;28;20026;-66
2022/03/18 06:52:35;;;;;;;28.00;21.45;;;13.10;46.80;;;;;;5121200;28;20039;-67
2022/03/18 06:55:01;;;;;;;30.33;22.63;;;13.20;46.90;;;;;;5122523;28;20324;-66
2022/03/18 06:57:27;;;;;;;28.17;22.42;;;13.10;46.80;;;;;;5121226;28;20050;-66
2022/03/18 06:59:56;;;;;;;30.13;23.35;;;13.20;46.80;;;;;;5122415;28;20023;-67
2022/03/18 07:02:22;;;;;;;31.08;21.67;;;13.10;46.80;;;;;;5122366;28;20023;-67
2022/03/18 07:04:48;;;;;;;29.73;23.00;;;13.10;46.70;;;;;;5122408;28;20027;-65
2022/03/18 07:07:13;;;;;;;30.88;23.20;;;13.20;46.80;;;;;;5122162;28;20038;-67
2022/03/18 07:09:39;;;;;;;25.10;19.23;;;13.20;46.90;;;;;;5122271;28;20331;-67
2022/03/18 07:12:05;;;;;;;28.58;22.75;;;13.20;46.70;;;;;;5122153;28;20031;-67
2022/03/18 07:14:31;;;;;;;32.25;24.02;;;13.20;46.70;;;;;;5122175;28;20540;-66
2022/03/18 07:19:44;;;;;;;30.83;23.40;;;13.20;46.60;;;;;;5121058;28;20034;-67
2022/03/18 07:22:09;;;;;;;27.90;22.50;;;13.20;46.60;;;;;;5122006;28;20334;-67
2022/03/18 07:24:35;;;;;;;29.92;22.90;;;13.20;46.70;;;;;;5121951;28;20035;-67
2022/03/18 07:27:01;;;;;;;30.23;21.73;;;13.20;46.60;;;;;;5121754;28;20271;-65
2022/03/18 07:29:26;;;;;;;29.27;22.13;;;13.20;46.60;;;;;;5121899;28;20340;-66
2022/03/18 07:31:54;;;;;;;30.23;22.63;;;13.20;46.60;;;;;;5121712;28;20015;-66
2022/03/18 07:34:21;;;;;;;29.90;22.90;;;13.20;46.60;;;;;;5121816;28;20336;-67
2022/03/18 07:36:48;;;;;;;28.15;21.60;;;13.20;46.70;;;;;;5121722;28;20478;-66
2022/03/18 07:39:13;;;;;;;29.85;22.90;;;13.30;46.60;;;;;;5121623;28;20250;-67
2022/03/18 07:41:39;;;;;;;28.52;22.50;;;13.30;46.60;;;;;;5121553;28;20019;-66
2022/03/18 07:44:05;;;;;;;27.05;21.83;;;13.30;47.30;;;;;;5120059;28;20335;-66
2022/03/18 07:46:31;;;;;;;27.30;21.92;;;13.30;46.60;;;;;;5121307;28;20091;-66
2022/03/18 07:48:56;;;;;;;29.10;22.08;;;13.30;46.60;;;;;;5121421;28;20034;-66
2022/03/18 07:51:22;;;;;;;27.70;22.40;;;13.30;46.60;;;;;;5121364;28;20019;-67
2022/03/18 07:53:48;;;;;;;31.00;23.35;;;13.30;46.70;;;;;;5121343;28;20330;-66
2022/03/18 07:56:13;;;;;;;30.58;23.65;;;13.30;46.50;;;;;;5121401;28;20032;-67
2022/03/18 07:58:39;;;;;;;29.48;22.70;;;13.30;46.70;;;;;;5121240;28;20054;-67
2022/03/18 08:01:05;;;;;;;27.50;21.13;;;13.30;46.60;;;;;;5121169;28;20338;-67
2022/03/18 08:03:31;;;;;;;29.63;23.00;;;13.30;46.60;;;;;;5121170;28;20030;-66
2022/03/18 08:05:57;;;;;;;30.65;22.75;;;13.30;46.60;;;;;;5121004;28;20019;-66
2022/03/18 08:08:23;;;;;;;29.45;22.45;;;13.30;46.40;;;;;;5120973;28;20023;-66
2022/03/18 08:10:50;;;;;;;31.52;22.80;;;13.30;46.40;;;;;;5120953;28;20036;-67
2022/03/18 08:13:17;;;;;;;29.48;22.80;;;13.30;46.40;;;;;;5120992;28;20197;-67
2022/03/18 08:15:44;;;;;;;28.27;22.95;;;13.30;46.60;;;;;;5120883;27;20199;-66
2022/03/18 08:18:10;;;;;;;30.48;22.90;;;13.30;46.40;;;;;;5120816;28;20024;-67
2022/03/18 08:20:40;;;;;;;30.27;22.45;;;13.30;46.30;;;;;;5120795;28;20027;-66
2022/03/18 08:23:12;;;;;;;31.55;23.33;;;13.40;46.50;;;;;;5120796;28;20578;-67
2022/03/18 08:25:38;;;;;;;31.00;22.83;;;13.30;46.40;;;;;;5120876;28;20031;-66
2022/03/18 08:28:07;;;;;;;29.33;22.38;;;13.40;46.50;;;;;;5120735;28;20028;-67
2022/03/18 08:30:33;;;;;;;28.67;22.33;;;13.40;46.60;;;;;;5120501;28;20132;-66
2022/03/18 08:32:59;;;;;;;31.88;23.48;;;13.40;46.60;;;;;;5120618;28;20223;-67
2022/03/18 08:35:25;;;;;;;32.03;23.40;;;13.30;46.70;;;;;;5120535;28;20008;-66
2022/03/18 08:37:57;;;;;;;29.10;23.27;;;13.40;46.60;;;;;;5120477;28;20083;-66
2022/03/18 08:40:25;;;;;;;32.35;23.70;;;13.40;46.70;;;;;;5120470;28;20342;-65
2022/03/18 08:42:52;;;;;;;28.13;22.25;;;13.40;46.70;;;;;;5120721;28;20027;-66
2022/03/18 08:45:18;;;;;;;33.35;24.73;;;13.40;46.50;;;;;;5120106;28;20048;-67
2022/03/18 08:47:44;;;;;;;27.02;22.20;;;13.40;46.70;;;;;;5120430;28;20050;-66
2022/03/18 08:50:10;;;;;;;30.40;22.98;;;13.40;46.30;;;;;;5120324;28;20300;-67
2022/03/18 08:52:36;;;;;;;33.47;24.35;;;13.40;46.20;;;;;;5120289;28;20042;-66
2022/03/18 08:55:03;;;;;;;32.00;24.23;;;13.40;46.70;;;;;;5120282;28;20008;-67
2022/03/18 08:57:31;;;;;;;26.85;21.73;;;13.40;46.70;;;;;;5120198;28;20358;-66
2022/03/18 08:59:57;;;;;;;30.92;23.95;;;13.50;46.40;;;;;;5118953;28;20031;-66
2022/03/18 09:02:23;;;;;;;30.98;23.65;;;13.50;46.80;;;;;;5120155;28;20334;-64
2022/03/18 09:04:50;;;;;;;31.95;24.35;;;13.50;46.70;;;;;;5120142;28;20023;-66
2022/03/18 09:07:16;;;;;;;32.20;24.17;;;13.50;46.50;;;;;;5120056;28;20053;-66
2022/03/18 09:09:42;;;;;;;36.33;23.98;;;13.50;46.50;;;;;;5119967;28;20034;-66
2022/03/18 09:12:08;;;;;;;32.90;24.50;;;13.60;46.50;;;;;;5120055;28;20308;-67
2022/03/18 09:14:34;;;;;;;30.73;23.83;;;13.60;46.30;;;;;;5120004;28;20324;-67
2022/03/18 09:16:59;;;;;;;28.65;22.38;;;13.60;46.50;;;;;;5119941;28;20030;-67
2022/03/18 09:19:25;;;;;;;30.90;24.48;;;13.60;46.30;;;;;;5119965;28;20027;-67
2022/03/18 09:21:51;;;;;;;29.13;22.83;;;13.60;46.50;;;;;;5119923;28;20212;-66
2022/03/18 09:24:17;;;;;;;30.90;23.95;;;13.60;46.40;;;;;;5119897;28;20011;-67
2022/03/18 09:26:43;;;;;;;31.58;24.35;;;13.60;46.50;;;;;;5119787;28;20335;-67
2022/03/18 09:29:09;;;;;;;32.13;24.67;;;13.60;46.60;;;;;;5119845;28;20020;-66
2022/03/18 09:31:36;;;;;;;31.48;24.35;;;13.60;46.50;;;;;;5119768;28;20361;-67
2022/03/18 09:34:02;;;;;;;30.48;24.38;;;13.60;46.40;;;;;;5119817;28;20027;-68
2022/03/18 09:36:27;;;;;;;29.48;23.30;;;13.70;46.40;;;;;;5119816;28;20046;-67
2022/03/18 09:38:54;;;;;;;32.28;25.67;;;13.70;46.50;;;;;;5119836;28;20343;-66
2022/03/18 09:41:20;;;;;;;32.55;23.98;;;13.70;46.50;;;;;;5120190;28;20027;-67
2022/03/18 09:43:46;;;;;;;29.35;23.27;;;13.70;46.50;;;;;;5123777;28;20496;-67
2022/03/18 09:46:16;;;;;;;29.67;23.88;;;13.70;46.50;;;;;;5123669;28;20047;-66
2022/03/18 09:48:43;;;;;;;33.92;25.00;;;13.70;46.60;;;;;;5123796;28;20018;-67
2022/03/18 09:51:09;;;;;;;32.17;23.38;;;13.70;46.50;;;;;;5123721;28;20023;-67
2022/03/18 09:53:35;;;;;;;31.70;24.30;;;13.70;46.40;;;;;;5122352;28;20019;-67
2022/03/18 09:56:02;;;;;;;30.63;23.67;;;13.70;46.50;;;;;;5123611;27;20068;-67
2022/03/18 09:58:28;;;;;;;30.23;23.08;;;13.70;46.50;;;;;;5123561;28;20090;-68
2022/03/18 10:00:58;;;;;;;32.83;25.33;;;13.70;46.50;;;;;;5123510;28;20030;-66
2022/03/18 10:03:35;;;;;;;34.13;24.98;;;13.70;46.40;;;;;;5123395;28;20066;-67
2022/03/18 10:06:03;;;;;;;31.95;24.38;;;13.70;46.40;;;;;;5123410;28;20023;-66
2022/03/18 10:08:35;;;;;;;30.10;23.33;;;13.70;46.50;;;;;;5123349;28;20020;-65
2022/03/18 10:11:25;;;;;;;32.05;23.83;;;13.70;46.50;;;;;;5123320;28;20087;-66
2022/03/18 10:14:01;;;;;;;30.17;24.50;;;13.70;46.40;;;;;;5123293;28;20016;-67
2022/03/18 10:16:34;;;;;;;32.40;25.48;;;13.80;46.50;;;;;;5123270;28;20078;-66
2022/03/18 10:19:06;;;;;;;29.55;22.67;;;13.80;46.60;;;;;;5123166;28;20028;-68
2022/03/18 10:21:32;;;;;;;30.33;23.27;;;13.80;46.50;;;;;;5121901;28;20283;-67
2022/03/18 10:24:09;;;;;;;30.98;23.15;;;13.80;46.50;;;;;;5123140;28;20427;-66
2022/03/18 10:26:36;;;;;;;30.20;23.23;;;13.80;46.50;;;;;;5122970;28;20039;-66
2022/03/18 10:29:04;;;;;;;28.50;22.95;;;13.80;46.50;;;;;;5123018;28;20631;-67
2022/03/18 10:31:30;;;;;;;29.55;23.88;;;13.80;46.50;;;;;;5123022;28;20304;-68
2022/03/18 10:37:05;;;;;;;31.10;23.63;;;13.80;46.50;;;;;;5122857;28;20149;-67
2022/03/18 10:39:32;;;;;;;29.35;23.30;;;13.80;46.40;;;;;;5122859;28;20445;-66
2022/03/18 10:42:00;;;;;;;29.88;22.63;;;13.80;46.40;;;;;;5121398;28;20050;-66
2022/03/18 10:44:27;;;;;;;28.85;23.17;;;13.80;46.60;;;;;;5122466;27;20047;-66
2022/03/18 10:46:56;;;;;;;28.23;22.13;;;13.80;46.60;;;;;;5122490;28;20182;-65
2022/03/18 10:49:24;;;;;;;28.67;22.20;;;13.80;46.40;;;;;;5122501;28;20111;-66
2022/03/18 10:51:50;;;;;;;28.90;22.52;;;13.80;46.40;;;;;;5122576;27;20043;-67
2022/03/18 10:54:24;;;;;;;31.25;23.92;;;13.80;46.30;;;;;;5121134;28;20057;-66
2022/03/18 10:56:59;;;;;;;30.85;23.50;;;13.80;46.20;;;;;;5122401;28;20033;-67
2022/03/18 10:59:27;;;;;;;30.38;22.58;;;13.80;46.40;;;;;;5122375;28;20019;-67
2022/03/18 11:01:56;;;;;;;31.63;24.02;;;13.90;46.40;;;;;;5121095;28;20216;-68
2022/03/18 11:04:26;;;;;;;28.08;21.77;;;13.90;46.40;;;;;;5122273;28;20043;-66
2022/03/18 11:12:31;;;;;;;29.73;23.00;;;13.80;46.40;;;;;;5122192;28;20026;-67
2022/03/18 11:14:59;;;;;;;25.58;20.83;;;13.90;46.40;;;;;;5122098;28;20235;-67
2022/03/18 11:17:25;;;;;;;30.23;23.35;;;13.90;46.30;;;;;;5122043;28;20024;-66
2022/03/18 11:19:59;;;;;;;31.15;22.92;;;13.90;46.30;;;;;;5121949;28;20023;-67
2022/03/18 11:22:26;;;;;;;32.20;23.38;;;13.90;46.40;;;;;;5122001;28;20042;-66
2022/03/18 11:24:53;;;;;;;30.08;21.88;;;13.90;46.40;;;;;;5121956;28;20247;-66
2022/03/18 11:27:20;;;;;;;29.80;23.33;;;13.90;46.30;;;;;;5121778;28;20019;-67
2022/03/18 11:29:46;;;;;;;27.88;22.67;;;13.90;46.40;;;;;;5121739;28;20087;-67
2022/03/18 11:32:15;;;;;;;28.63;21.50;;;13.90;46.40;;;;;;5121743;28;20047;-66
2022/03/18 11:34:50;;;;;;;26.75;21.88;;;13.90;46.40;;;;;;5121629;28;20026;-66
2022/03/18 11:37:18;;;;;;;27.48;21.23;;;13.90;46.40;;;;;;5121658;28;20034;-66
2022/03/18 11:39:43;;;;;;;29.88;23.83;;;13.90;46.40;;;;;;5120333;28;20224;-67
2022/03/18 11:42:10;;;;;;;27.67;22.13;;;13.90;46.40;;;;;;5121531;28;20043;-66
2022/03/18 11:44:40;;;;;;;30.27;22.90;;;13.90;46.40;;;;;;5121330;28;20094;-67
2022/03/18 11:47:20;;;;;;;29.75;22.77;;;13.90;46.30;;;;;;5121333;28;20031;-66
2022/03/18 11:49:52;;;;;;;28.45;22.10;;;13.90;46.30;;;;;;5121297;28;20328;-66
2022/03/18 11:52:18;;;;;;;29.77;21.38;;;13.90;46.20;;;;;;5121292;28;20081;-67
2022/03/18 11:55:01;;;;;;;28.67;22.88;;;14.00;46.40;;;;;;5121219;28;20031;-66
2022/03/18 11:57:34;;;;;;;28.67;21.58;;;13.90;46.40;;;;;;5121240;28;20051;-67
2022/03/18 12:00:05;;;;;;;29.67;22.63;;;13.90;46.40;;;;;;5121217;28;20436;-66
2022/03/18 12:02:41;;;;;;;28.55;22.08;;;13.90;46.50;;;;;;5121126;28;20031;-67
2022/03/18 12:05:07;;;;;;;29.38;22.23;;;13.90;46.40;;;;;;5120699;28;20019;-66
2022/03/18 12:07:51;;;;;;;29.08;23.33;;;14.00;46.40;;;;;;5120897;28;20030;-66
2022/03/18 12:10:41;;;;;;;28.92;21.92;;;14.00;46.20;;;;;;5121264;28;20075;-66
2022/03/18 12:13:07;;;;;;;26.42;20.90;;;14.00;46.30;;;;;;5120935;28;20303;-66
2022/03/18 12:15:40;;;;;;;27.70;22.08;;;14.00;46.40;;;;;;5120866;28;20055;-66
2022/03/18 12:18:06;;;;;;;27.65;21.73;;;14.00;46.30;;;;;;5120820;28;20114;-67
2022/03/18 12:20:34;;;;;;;25.60;21.58;;;14.00;46.40;;;;;;5120780;28;20050;-67
2022/03/18 12:23:06;;;;;;;26.57;20.40;;;14.00;46.40;;;;;;5120782;28;20035;-67
2022/03/18 12:25:33;;;;;;;28.52;22.27;;;14.00;46.40;;;;;;5120649;28;20023;-67
2022/03/18 12:27:59;;;;;;;27.10;21.20;;;14.00;46.40;;;;;;5120661;28;20024;-66
2022/03/18 12:30:26;;;;;;;29.55;23.23;;;14.10;46.40;;;;;;5120544;28;20015;-67
2022/03/18 12:33:01;;;;;;;27.92;21.75;;;14.10;46.30;;;;;;5120548;28;20339;-66
2022/03/18 12:35:28;;;;;;;27.98;21.75;;;14.10;46.40;;;;;;5120521;28;20032;-65
2022/03/18 12:38:16;;;;;;;27.02;21.65;;;14.10;46.30;;;;;;5120445;28;20231;-67
2022/03/18 12:40:55;;;;;;;28.02;22.63;;;14.10;46.40;;;;;;5120499;28;20027;-67
2022/03/18 12:43:23;;;;;;;29.63;22.33;;;14.10;46.40;;;;;;5120428;28;20047;-66
2022/03/18 12:45:50;;;;;;;31.77;22.85;;;14.10;46.40;;;;;;5120119;28;20055;-67
2022/03/18 12:48:18;;;;;;;29.13;21.85;;;14.10;46.40;;;;;;5120296;28;20043;-68
2022/03/18 12:50:47;;;;;;;27.00;21.45;;;14.10;46.40;;;;;;5118960;28;20023;-67
2022/03/18 12:53:22;;;;;;;28.95;22.83;;;14.10;46.40;;;;;;5120229;28;20015;-67
2022/03/18 12:55:53;;;;;;;29.55;22.27;;;14.20;46.20;;;;;;5118981;28;20498;-66
2022/03/18 12:58:21;;;;;;;26.42;21.90;;;14.20;46.20;;;;;;5120028;28;20027;-67